Time;durP1;ratioP1;P1;durP2;ratioP2;P2;SDS_P1;SDS_P2;PMS_P1;PMS_P2;Temp;Humidity;BMP_temperature;BMP_pressure;BME280_temperature;BME280_humidity;BME280_pressure;Samples;Min_cycle;Max_cycle;Signal;HPM_P1;HPM_P2
2023/05/14 00:00:18;;;;;;;0.50;0.42;;;;;;;24.59;39.12;99056.77;1897263;75;28502;-62
2023/05/14 00:03:06;;;;;;;1.80;0.40;;;;;;;24.59;39.12;99061.72;1869178;76;28145;-62
2023/05/14 00:05:55;;;;;;;0.40;0.40;;;;;;;24.58;39.11;99053.19;1878506;75;28074;-62
2023/05/14 00:08:43;;;;;;;0.47;0.47;;;;;;;24.58;39.15;99062.80;1893479;75;28116;-62
2023/05/14 00:11:32;;;;;;;0.37;0.37;;;;;;;24.59;39.12;99058.14;1881700;75;28103;-62
2023/05/14 00:14:20;;;;;;;0.30;0.30;;;;;;;24.57;39.12;99058.95;1882554;75;28056;-63
2023/05/14 00:17:08;;;;;;;0.35;0.35;;;;;;;24.57;39.09;99049.34;1871674;75;28250;-62
2023/05/14 00:19:58;;;;;;;0.30;0.30;;;;;;;24.55;39.18;99060.56;1869493;75;28141;-62
2023/05/14 00:22:47;;;;;;;0.50;0.50;;;;;;;24.55;39.10;99052.89;1896316;75;28188;-62
2023/05/14 00:25:36;;;;;;;0.40;0.40;;;;;;;24.56;39.11;99054.53;1897548;75;28220;-62
2023/05/14 00:28:25;;;;;;;0.40;0.40;;;;;;;24.56;39.10;99049.88;1894037;75;28070;-62
2023/05/14 00:31:14;;;;;;;0.70;0.53;;;;;;;24.56;39.09;99044.38;1890633;75;28123;-62
2023/05/14 00:34:02;;;;;;;0.40;0.40;;;;;;;24.55;39.08;99030.35;1868144;76;28721;-62
2023/05/14 00:36:52;;;;;;;0.50;0.40;;;;;;;24.53;39.09;99024.30;1877776;75;28094;-62
2023/05/14 00:39:41;;;;;;;0.30;0.30;;;;;;;24.55;39.06;99021.31;1875280;75;28161;-62
2023/05/14 00:42:29;;;;;;;0.40;0.40;;;;;;;24.54;39.06;99016.36;1889609;75;28122;-62
2023/05/14 00:45:18;;;;;;;0.40;0.40;;;;;;;24.48;39.09;99011.88;1868964;76;28156;-63
2023/05/14 00:48:06;;;;;;;0.45;0.40;;;;;;;24.55;39.10;99019.37;1874539;75;28075;-63
2023/05/14 00:50:55;;;;;;;0.40;0.30;;;;;;;24.54;39.14;99016.36;1892165;75;28185;-62
2023/05/14 00:53:43;;;;;;;1.30;0.60;;;;;;;24.56;39.13;99016.09;1892593;75;28100;-62
2023/05/14 00:56:32;;;;;;;0.40;0.40;;;;;;;24.55;39.16;99009.76;1856812;77;28266;-62
2023/05/14 00:59:20;;;;;;;0.20;0.20;;;;;;;24.56;39.21;99009.22;1891922;75;28107;-62
2023/05/14 01:02:08;;;;;;;1.10;0.30;;;;;;;24.54;39.23;99002.63;1888317;75;28064;-61
2023/05/14 01:04:57;;;;;;;0.30;0.30;;;;;;;24.53;39.25;99002.33;1895812;75;28070;-63
2023/05/14 01:08:01;;;;;;;0.30;0.30;;;;;;;24.53;39.24;99002.33;1856981;77;28111;-62
2023/05/14 01:10:55;;;;;;;0.20;0.20;;;;;;;24.52;39.25;98990.23;1868633;76;28096;-63
2023/05/14 01:14:06;;;;;;;0.40;0.40;;;;;;;24.50;39.32;98992.42;1881852;75;28484;-63
2023/05/14 01:16:57;;;;;;;0.30;0.30;;;;;;;24.49;39.34;98995.70;1897312;75;28068;-62
2023/05/14 01:19:47;;;;;;;0.42;0.42;;;;;;;24.48;39.39;98996.78;1892544;75;28112;-62
2023/05/14 01:22:35;;;;;;;0.47;0.47;;;;;;;24.48;39.41;98996.78;1882662;75;30991;-63
2023/05/14 01:25:24;;;;;;;0.40;0.40;;;;;;;24.49;39.37;99000.36;1892757;75;28131;-62
2023/05/14 01:28:18;;;;;;;0.20;0.20;;;;;;;24.49;39.42;98998.98;1880583;75;28056;-62
2023/05/14 01:31:16;;;;;;;0.40;0.40;;;;;;;24.52;39.35;98993.82;1896332;75;28085;-62
2023/05/14 01:34:06;;;;;;;0.40;0.40;;;;;;;24.51;39.38;98992.16;1868755;76;28068;-63
2023/05/14 01:36:57;;;;;;;0.28;0.28;;;;;;;24.50;39.34;98984.19;1856824;77;28184;-63
2023/05/14 01:39:46;;;;;;;0.30;0.30;;;;;;;24.49;39.39;98982.52;1890073;75;28130;-63
2023/05/14 01:42:35;;;;;;;0.20;0.20;;;;;;;24.52;39.42;98991.08;1884293;75;28111;-62
2023/05/14 01:45:24;;;;;;;0.80;0.40;;;;;;;24.51;39.45;98989.41;1886693;75;28065;-62
2023/05/14 01:48:13;;;;;;;0.40;0.30;;;;;;;24.52;39.42;98986.95;1894584;75;28104;-62
2023/05/14 01:51:01;;;;;;;0.30;0.30;;;;;;;24.52;39.38;98992.45;1888357;74;28147;-62
2023/05/14 01:53:50;;;;;;;0.30;0.30;;;;;;;24.49;39.40;98992.95;1901985;74;28099;-61
2023/05/14 01:56:38;;;;;;;0.25;0.25;;;;;;;24.52;39.33;98991.08;1878336;76;38396;-61
2023/05/14 01:59:28;;;;;;;0.40;0.40;;;;;;;24.50;39.29;98989.14;1898468;74;28055;-62
2023/05/14 02:02:16;;;;;;;0.35;0.35;;;;;;;24.52;39.29;98991.08;1883749;74;28284;-62
2023/05/14 02:05:06;;;;;;;0.30;0.30;;;;;;;24.53;39.30;98995.46;1897766;74;28121;-62
2023/05/14 02:07:54;;;;;;;0.30;0.30;;;;;;;24.52;39.27;98988.33;1910906;74;28118;-62
2023/05/14 02:10:42;;;;;;;0.47;0.47;;;;;;;24.52;39.24;98986.95;1880063;74;28322;-62
2023/05/14 02:13:31;;;;;;;0.40;0.40;;;;;;;24.53;39.30;98989.97;1877872;76;28167;-62
2023/05/14 02:16:19;;;;;;;0.20;0.20;;;;;;;24.52;39.27;98986.13;1888460;75;28131;-62
2023/05/14 02:19:07;;;;;;;0.30;0.30;;;;;;;24.53;39.26;98993.25;1878269;76;28055;-62
2023/05/14 02:21:55;;;;;;;0.40;0.40;;;;;;;24.52;39.23;98995.20;1896975;74;28227;-62
2023/05/14 02:24:44;;;;;;;0.40;0.40;;;;;;;24.54;39.28;98995.76;1901015;74;28182;-63
2023/05/14 02:27:32;;;;;;;0.28;0.28;;;;;;;24.50;39.25;98993.80;1902198;74;28673;-62
2023/05/14 02:30:21;;;;;;;0.35;0.35;;;;;;;24.53;39.27;98988.59;1900411;74;28196;-62
2023/05/14 02:33:10;;;;;;;0.50;0.50;;;;;;;24.49;39.23;98987.47;1900584;74;28252;-62
2023/05/14 02:35:58;;;;;;;0.20;0.20;;;;;;;24.49;39.29;98984.72;1900993;74;28264;-63
2023/05/14 02:38:46;;;;;;;0.40;0.40;;;;;;;24.48;39.29;98981.67;1902395;74;28506;-61
2023/05/14 02:41:35;;;;;;;0.90;0.60;;;;;;;24.49;39.27;98984.72;1878053;76;28198;-62
2023/05/14 02:44:24;;;;;;;0.50;0.40;;;;;;;24.50;39.25;98985.02;1895106;74;28204;-62
2023/05/14 02:47:12;;;;;;;0.30;0.30;;;;;;;24.50;39.24;98982.27;1901677;74;28095;-62
2023/05/14 02:50:01;;;;;;;0.40;0.40;;;;;;;24.50;39.22;98986.39;1878039;76;28554;-62
2023/05/14 02:52:49;;;;;;;0.50;0.50;;;;;;;24.51;39.24;98985.28;1873218;76;28612;-63
2023/05/14 02:55:37;;;;;;;0.35;0.35;;;;;;;24.53;39.24;98981.73;1894741;75;28120;-62
2023/05/14 02:58:26;;;;;;;0.33;0.33;;;;;;;24.51;39.21;98982.54;1874876;75;28060;-62
2023/05/14 03:01:14;;;;;;;0.30;0.30;;;;;;;24.49;39.23;98976.48;1868540;76;28092;-62
2023/05/14 03:04:02;;;;;;;0.30;0.30;;;;;;;24.48;39.25;98977.56;1879419;75;28115;-62
2023/05/14 03:06:51;;;;;;;0.70;0.40;;;;;;;24.48;39.28;98970.70;1868384;75;28018;-62
2023/05/14 03:09:39;;;;;;;0.33;0.33;;;;;;;24.49;39.29;98972.36;1884973;75;28056;-63
2023/05/14 03:12:27;;;;;;;0.33;0.33;;;;;;;24.49;39.26;98971.53;1867354;75;28088;-62
2023/05/14 03:15:16;;;;;;;0.50;0.50;;;;;;;24.51;39.23;98972.93;1873838;75;28255;-62
2023/05/14 03:18:05;;;;;;;0.33;0.33;;;;;;;24.49;39.25;98969.62;1869022;76;28165;-62
2023/05/14 03:20:53;;;;;;;0.40;0.40;;;;;;;24.49;39.23;98977.02;1871321;75;28093;-62
2023/05/14 03:23:42;;;;;;;0.20;0.20;;;;;;;24.50;39.23;98972.66;1894559;75;28110;-62
2023/05/14 03:26:31;;;;;;;0.30;0.30;;;;;;;24.48;39.26;98970.70;1895548;75;28176;-62
2023/05/14 03:29:20;;;;;;;0.40;0.40;;;;;;;24.49;39.28;98975.11;1875342;75;28086;-63
2023/05/14 03:32:08;;;;;;;0.60;0.30;;;;;;;24.48;39.31;98971.27;1868475;76;28154;-62
2023/05/14 03:34:57;;;;;;;0.30;0.30;;;;;;;24.49;39.34;98974.27;1862239;76;28068;-62
2023/05/14 03:37:46;;;;;;;0.40;0.40;;;;;;;24.48;39.29;98973.44;1896710;75;28087;-62
2023/05/14 03:40:35;;;;;;;0.30;0.30;;;;;;;24.47;39.31;98976.45;1880215;76;28218;-62
2023/05/14 03:43:23;;;;;;;0.20;0.20;;;;;;;24.45;39.33;98975.35;1868459;76;28108;-62
2023/05/14 03:46:11;;;;;;;0.42;0.37;;;;;;;24.48;39.35;98972.06;1861300;76;28060;-62
2023/05/14 03:49:00;;;;;;;0.10;0.10;;;;;;;24.49;39.34;98971.53;1898028;75;28051;-62
2023/05/14 03:51:48;;;;;;;0.25;0.25;;;;;;;24.50;39.30;98975.95;1872546;75;28151;-61
2023/05/14 03:54:37;;;;;;;0.50;0.50;;;;;;;24.49;39.23;98975.11;1892722;75;28113;-62
2023/05/14 03:57:25;;;;;;;0.20;0.20;;;;;;;24.50;39.22;98973.20;1897170;75;28098;-62
2023/05/14 04:00:14;;;;;;;0.20;0.20;;;;;;;24.47;39.27;98969.59;1894661;75;28178;-62
2023/05/14 04:03:05;;;;;;;0.40;0.25;;;;;;;24.48;39.24;98970.70;1868484;76;28048;-62
2023/05/14 04:05:53;;;;;;;0.30;0.20;;;;;;;24.48;39.27;98971.27;1896955;75;28123;-62
2023/05/14 04:08:42;;;;;;;0.20;0.20;;;;;;;24.48;39.24;98972.63;1894112;75;28141;-62
2023/05/14 04:11:30;;;;;;;0.40;0.40;;;;;;;24.47;39.25;98970.97;1887599;75;28048;-62
2023/05/14 04:14:20;;;;;;;0.37;0.37;;;;;;;24.48;39.25;98969.89;1868637;76;30152;-61
2023/05/14 04:17:08;;;;;;;0.33;0.33;;;;;;;24.47;39.27;98966.31;1874450;75;28128;-62
2023/05/14 04:19:57;;;;;;;0.30;0.30;;;;;;;24.47;39.26;98964.94;1896898;75;28177;-62
2023/05/14 04:22:45;;;;;;;0.20;0.20;;;;;;;24.47;39.27;98960.81;1868519;76;28173;-62
2023/05/14 04:25:34;;;;;;;0.33;0.33;;;;;;;24.47;39.22;98962.19;1868491;76;28147;-62
2023/05/14 04:28:22;;;;;;;0.40;0.40;;;;;;;24.47;39.01;98963.56;1890609;75;28067;-62
2023/05/14 04:31:11;;;;;;;0.35;0.35;;;;;;;24.49;39.06;98966.04;1874330;75;28191;-63
2023/05/14 04:33:59;;;;;;;0.30;0.30;;;;;;;24.49;39.19;98966.88;1883184;75;28115;-62
2023/05/14 04:36:48;;;;;;;0.43;0.43;;;;;;;24.46;39.27;98966.02;1868864;76;28126;-63
2023/05/14 04:39:36;;;;;;;0.30;0.30;;;;;;;24.46;39.28;98967.38;1868770;76;28093;-62
2023/05/14 04:42:24;;;;;;;0.30;0.30;;;;;;;24.47;39.27;98966.84;1868632;76;28107;-62
2023/05/14 04:45:13;;;;;;;0.17;0.17;;;;;;;24.46;39.24;98962.43;1884116;75;28181;-62
2023/05/14 04:48:03;;;;;;;0.98;0.30;;;;;;;24.45;39.25;98961.62;1895382;75;28143;-62
2023/05/14 04:50:51;;;;;;;0.27;0.27;;;;;;;24.44;39.23;98959.95;1879626;75;28233;-61
2023/05/14 04:53:39;;;;;;;0.20;0.20;;;;;;;24.44;39.27;98961.86;1895991;75;28060;-62
2023/05/14 04:56:27;;;;;;;0.28;0.28;;;;;;;24.46;39.17;98968.76;1868623;76;28080;-63
2023/05/14 04:59:16;;;;;;;0.35;0.35;;;;;;;24.45;39.21;98968.48;1892151;75;28091;-61
2023/05/14 05:02:04;;;;;;;0.25;0.25;;;;;;;24.46;39.18;98963.27;1900858;75;28135;-62
2023/05/14 05:04:52;;;;;;;0.25;0.25;;;;;;;24.45;39.18;98963.53;1896524;75;28143;-62
2023/05/14 05:07:40;;;;;;;0.50;0.37;;;;;;;24.41;39.15;98959.09;1894616;75;28154;-63
2023/05/14 05:10:29;;;;;;;0.40;0.40;;;;;;;24.46;39.14;98966.02;1897699;75;28052;-63
2023/05/14 05:13:18;;;;;;;0.20;0.20;;;;;;;24.46;39.17;98970.67;1896352;75;28121;-62
2023/05/14 05:16:06;;;;;;;0.20;0.20;;;;;;;24.44;39.16;98970.94;1884037;75;28032;-62
2023/05/14 05:18:55;;;;;;;0.50;0.30;;;;;;;24.44;39.12;98975.05;1890817;75;28087;-62
2023/05/14 05:21:43;;;;;;;0.10;0.10;;;;;;;24.46;39.16;98979.73;1894825;75;28181;-62
2023/05/14 05:24:31;;;;;;;0.30;0.30;;;;;;;24.45;39.14;98971.23;1896056;75;28170;-62
2023/05/14 05:27:20;;;;;;;0.17;0.17;;;;;;;24.44;39.14;98979.17;1868618;76;28628;-62
2023/05/14 05:30:10;;;;;;;0.30;0.30;;;;;;;24.43;39.14;98970.67;1892473;75;28148;-62
2023/05/14 05:32:59;;;;;;;0.70;0.30;;;;;;;24.43;39.13;98976.16;1876596;75;28187;-62
2023/05/14 05:35:48;;;;;;;0.40;0.40;;;;;;;24.43;39.18;98971.20;1867009;76;28170;-61
2023/05/14 05:38:37;;;;;;;0.70;0.30;;;;;;;24.43;39.13;98977.53;1868541;76;28060;-62
2023/05/14 05:41:25;;;;;;;0.40;0.40;;;;;;;24.43;39.13;98976.16;1891336;75;28236;-63
2023/05/14 05:44:14;;;;;;;0.30;0.30;;;;;;;24.43;39.14;98978.91;1895004;75;28119;-62
2023/05/14 05:47:02;;;;;;;0.20;0.20;;;;;;;24.43;39.12;98981.66;1882844;75;27996;-61
2023/05/14 05:49:50;;;;;;;0.35;0.35;;;;;;;24.44;39.05;98982.45;1868526;76;28232;-63
2023/05/14 05:52:39;;;;;;;0.60;0.33;;;;;;;24.44;39.11;98983.83;1873133;75;28160;-63
2023/05/14 05:55:28;;;;;;;0.40;0.40;;;;;;;24.42;39.10;98982.73;1898190;74;28210;-64
2023/05/14 05:58:17;;;;;;;0.23;0.23;;;;;;;24.41;39.11;98985.17;1892588;75;28177;-63
2023/05/14 06:01:06;;;;;;;0.50;0.50;;;;;;;24.42;39.12;98984.09;1879473;75;28578;-63
2023/05/14 06:03:54;;;;;;;0.30;0.30;;;;;;;24.41;38.71;98985.17;1896780;75;28743;-63
2023/05/14 06:06:43;;;;;;;0.55;0.55;;;;;;;24.39;38.35;98981.86;1893348;74;28620;-63
2023/05/14 06:09:31;;;;;;;1.20;0.40;;;;;;;24.34;38.08;98980.42;1894665;75;28192;-63
2023/05/14 06:12:20;;;;;;;0.33;0.33;;;;;;;24.34;38.37;98978.25;1876688;75;28096;-61
2023/05/14 06:15:11;;;;;;;0.40;0.40;;;;;;;24.40;38.30;98978.04;1870832;75;28146;-62
2023/05/14 06:17:59;;;;;;;0.40;0.40;;;;;;;24.41;38.36;98972.02;1896473;75;28048;-62
2023/05/14 06:20:48;;;;;;;0.30;0.30;;;;;;;24.42;38.30;98971.74;1868794;76;28177;-62
2023/05/14 06:23:36;;;;;;;0.37;0.37;;;;;;;24.39;38.32;98973.63;1890689;75;28126;-62
2023/05/14 06:26:25;;;;;;;0.40;0.40;;;;;;;24.41;38.30;98975.56;1895530;75;28285;-62
2023/05/14 06:29:13;;;;;;;0.28;0.28;;;;;;;24.41;38.31;98967.90;1898598;75;28135;-62
2023/05/14 06:32:03;;;;;;;0.40;0.40;;;;;;;24.44;38.30;98971.47;1879472;75;28121;-64
2023/05/14 06:34:51;;;;;;;1.32;0.30;;;;;;;24.43;38.31;98972.05;1894804;75;28187;-62
2023/05/14 06:37:39;;;;;;;0.50;0.50;;;;;;;24.44;38.30;98973.69;1894682;75;28233;-62
2023/05/14 06:40:27;;;;;;;0.40;0.40;;;;;;;24.44;38.31;98972.84;1879843;75;28111;-62
2023/05/14 06:43:16;;;;;;;0.50;0.50;;;;;;;24.43;38.33;98972.05;1889519;75;28166;-62
2023/05/14 06:46:04;;;;;;;1.00;0.50;;;;;;;24.42;38.34;98970.38;1893515;75;28064;-63
2023/05/14 06:48:52;;;;;;;0.45;0.45;;;;;;;24.43;38.32;98978.91;1882473;75;28161;-63
2023/05/14 06:51:41;;;;;;;0.30;0.30;;;;;;;24.40;38.55;98966.22;1873214;75;28158;-62
2023/05/14 06:54:30;;;;;;;0.30;0.30;;;;;;;24.40;38.55;98966.22;1890860;75;31043;-64
2023/05/14 06:57:18;;;;;;;0.30;0.30;;;;;;;24.43;38.37;98973.42;1893953;75;28201;-62
2023/05/14 07:00:08;;;;;;;0.50;0.50;;;;;;;24.44;38.37;98976.43;1886657;75;28068;-61
2023/05/14 07:02:56;;;;;;;0.60;0.60;;;;;;;24.38;38.33;98973.36;1878237;75;28042;-67
2023/05/14 07:05:45;;;;;;;0.47;0.47;;;;;;;24.33;38.29;98977.41;1895743;75;28107;-62
2023/05/14 07:08:34;;;;;;;0.50;0.50;;;;;;;24.29;38.44;98975.45;1887336;75;28088;-61
2023/05/14 07:11:23;;;;;;;0.50;0.50;;;;;;;24.30;38.60;98972.97;1886149;75;28126;-63
2023/05/14 07:14:11;;;;;;;0.60;0.60;;;;;;;24.29;38.44;98969.42;1856897;77;28238;-61
2023/05/14 07:17:00;;;;;;;0.65;0.65;;;;;;;24.30;38.57;98968.85;1896111;75;28290;-61
2023/05/14 07:19:48;;;;;;;0.40;0.40;;;;;;;24.32;38.39;98969.45;1890005;75;28120;-61
2023/05/14 07:22:36;;;;;;;0.47;0.47;;;;;;;24.32;38.44;98962.02;1868310;76;28132;-61
2023/05/14 07:25:25;;;;;;;0.60;0.60;;;;;;;24.37;38.56;98969.48;1901126;75;28044;-61
2023/05/14 07:28:13;;;;;;;0.35;0.35;;;;;;;24.30;38.65;98954.59;1889144;75;28107;-60
2023/05/14 07:31:07;;;;;;;0.47;0.47;;;;;;;24.33;38.93;98971.09;1895989;75;28205;-61
2023/05/14 07:33:52;;;;;;;0.50;0.30;;;;;;;24.35;39.06;98967.00;1882953;75;28130;-62
2023/05/14 07:36:40;;;;;;;0.40;0.30;;;;;;;24.36;39.12;98959.06;1875617;75;28395;-59
2023/05/14 07:39:29;;;;;;;0.30;0.30;;;;;;;24.31;39.34;98965.03;1868371;76;28119;-60
2023/05/14 07:42:18;;;;;;;0.30;0.30;;;;;;;24.31;39.49;98965.03;1884880;75;28162;-58
